createdAt,value
2023-04-15T00:00:52.556Z,500.00
2023-04-15T00:01:52.604Z,500.00
2023-04-15T00:02:52.696Z,500.00
2023-04-15T00:03:52.781Z,497.00
2023-04-15T00:04:52.640Z,497.00
2023-04-15T00:05:52.531Z,499.00
2023-04-15T00:06:52.522Z,497.00
2023-04-15T00:07:52.509Z,500.00
2023-04-15T00:08:52.500Z,500.00
2023-04-15T00:09:52.498Z,501.00
2023-04-15T00:10:52.514Z,502.00
2023-04-15T00:11:52.531Z,500.00
2023-04-15T00:12:52.493Z,501.00
2023-04-15T00:13:52.471Z,500.00
2023-04-15T00:14:52.456Z,501.00
2023-04-15T00:15:52.456Z,500.00
2023-04-15T00:16:52.530Z,500.00
2023-04-15T00:17:52.480Z,498.00
2023-04-15T00:18:52.442Z,502.00
2023-04-15T00:19:52.433Z,501.00
2023-04-15T00:20:52.446Z,503.00
2023-04-15T00:21:52.409Z,502.00
2023-04-15T00:22:52.409Z,500.00
2023-04-15T00:23:52.447Z,500.00
2023-04-15T00:24:52.393Z,508.00
2023-04-15T00:25:52.400Z,505.00
2023-04-15T00:26:52.422Z,500.00
2023-04-15T00:27:52.423Z,504.00
2023-04-15T00:28:52.438Z,504.00
2023-04-15T00:29:52.482Z,506.00
2023-04-15T00:30:52.506Z,504.00
2023-04-15T00:31:52.478Z,507.00
2023-04-15T00:32:52.526Z,501.00
2023-04-15T00:33:52.499Z,504.00
2023-04-15T00:34:52.552Z,503.00
2023-04-15T00:35:52.523Z,509.00
2023-04-15T00:36:52.539Z,503.00
2023-04-15T00:37:52.587Z,503.00
2023-04-15T00:38:52.626Z,501.00
2023-04-15T00:39:52.590Z,504.00
2023-04-15T00:40:52.599Z,504.00
2023-04-15T00:41:52.643Z,507.00
2023-04-15T00:42:52.620Z,506.00
2023-04-15T00:43:52.621Z,503.00
2023-04-15T00:44:52.618Z,507.00
2023-04-15T00:45:52.656Z,505.00
2023-04-15T00:46:52.712Z,510.00
2023-04-15T00:47:52.718Z,508.00
2023-04-15T00:48:52.689Z,501.00
2023-04-15T00:49:52.647Z,505.00
2023-04-15T00:50:52.674Z,502.00
2023-04-15T00:51:52.668Z,505.00
2023-04-15T00:52:52.678Z,507.00
2023-04-15T00:53:52.694Z,511.00
2023-04-15T00:54:52.736Z,510.00
2023-04-15T00:55:52.740Z,510.00
2023-04-15T00:56:52.714Z,510.00
2023-04-15T00:57:52.736Z,505.00
2023-04-15T00:58:52.746Z,506.00
2023-04-15T00:59:52.739Z,508.00
2023-04-15T01:00:52.764Z,508.00
2023-04-15T01:01:52.815Z,506.00
2023-04-15T01:02:52.855Z,505.00
2023-04-15T01:03:52.832Z,509.00
2023-04-15T01:04:52.786Z,508.00
2023-04-15T01:05:52.746Z,500.00
2023-04-15T01:06:52.757Z,503.00
2023-04-15T01:07:52.764Z,501.00
2023-04-15T01:08:52.781Z,502.00
2023-04-15T01:09:52.816Z,508.00
2023-04-15T01:10:52.787Z,506.00
2023-04-15T01:11:52.792Z,503.00
2023-04-15T01:12:52.797Z,511.00
2023-04-15T01:13:52.807Z,504.00
2023-04-15T01:14:52.809Z,504.00
2023-04-15T01:15:52.852Z,508.00
2023-04-15T01:16:52.832Z,506.00
2023-04-15T01:17:52.897Z,502.00
2023-04-15T01:18:52.860Z,502.00
2023-04-15T01:19:52.836Z,503.00
2023-04-15T01:20:52.843Z,502.00
2023-04-15T01:21:52.855Z,508.00
2023-04-15T01:22:52.864Z,506.00
2023-04-15T01:23:52.912Z,508.00
2023-04-15T01:24:52.885Z,508.00
2023-04-15T01:25:52.897Z,500.00
2023-04-15T01:26:52.958Z,504.00
2023-04-15T01:27:52.911Z,506.00
2023-04-15T01:28:52.931Z,507.00
2023-04-15T01:29:52.946Z,504.00
2023-04-15T01:30:52.952Z,504.00
2023-04-15T01:31:53.027Z,507.00
2023-04-15T01:32:52.957Z,502.00
2023-04-15T01:33:52.970Z,506.00
2023-04-15T01:34:52.963Z,506.00
2023-04-15T01:35:52.951Z,508.00
2023-04-15T01:36:52.954Z,505.00
2023-04-15T01:37:52.960Z,504.00
2023-04-15T01:38:53.002Z,508.00
2023-04-15T01:39:52.979Z,508.00
2023-04-15T01:40:52.975Z,503.00
2023-04-15T01:41:52.978Z,506.00
2023-04-15T01:42:52.975Z,505.00
2023-04-15T01:43:53.045Z,503.00
2023-04-15T01:44:52.991Z,503.00
2023-04-15T01:45:52.994Z,509.00
2023-04-15T01:46:53.072Z,504.00
2023-04-15T01:47:53.127Z,500.00
2023-04-15T01:48:53.036Z,502.00
2023-04-15T01:49:53.036Z,500.00
2023-04-15T01:50:53.043Z,507.00
2023-04-15T01:51:53.038Z,501.00
2023-04-15T01:52:53.052Z,505.00
2023-04-15T01:53:53.065Z,503.00
2023-04-15T01:54:53.117Z,502.00
2023-04-15T01:55:53.110Z,510.00
2023-04-15T01:56:53.102Z,502.00
2023-04-15T01:57:53.126Z,510.00
2023-04-15T01:58:53.142Z,508.00
2023-04-15T01:59:53.160Z,510.00
2023-04-15T02:00:53.260Z,505.00
2023-04-15T02:01:53.225Z,506.00
2023-04-15T02:02:53.338Z,509.00
2023-04-15T02:03:53.294Z,507.00
2023-04-15T02:04:53.261Z,509.00
2023-04-15T02:05:53.296Z,512.00
2023-04-15T02:06:53.343Z,510.00
2023-04-15T02:07:53.328Z,502.00
2023-04-15T02:08:53.351Z,503.00
2023-04-15T02:09:53.365Z,510.00
2023-04-15T02:10:53.388Z,510.00
2023-04-15T02:11:53.417Z,510.00
2023-04-15T02:12:53.442Z,511.00
2023-04-15T02:13:53.476Z,506.00
2023-04-15T02:14:53.497Z,505.00
2023-04-15T02:15:53.519Z,506.00
2023-04-15T02:16:53.723Z,506.00
2023-04-15T02:17:54.564Z,504.00
2023-04-15T02:18:53.603Z,509.00
2023-04-15T02:19:53.600Z,503.00
2023-04-15T02:20:53.628Z,505.00
2023-04-15T02:21:53.687Z,508.00
2023-04-15T02:22:53.687Z,500.00
2023-04-15T02:23:54.178Z,503.00
2023-04-15T02:24:53.731Z,507.00
2023-04-15T02:25:54.420Z,503.00
2023-04-15T02:26:53.749Z,502.00
2023-04-15T02:27:53.770Z,512.00
2023-04-15T02:28:53.793Z,506.00
2023-04-15T02:29:53.854Z,511.00
2023-04-15T02:30:53.837Z,512.00
2023-04-15T02:31:53.913Z,515.00
2023-04-15T02:32:53.902Z,512.00
2023-04-15T02:33:53.872Z,502.00
2023-04-15T02:34:53.936Z,506.00
2023-04-15T02:35:53.916Z,506.00
2023-04-15T02:36:53.936Z,503.00
2023-04-15T02:37:53.938Z,509.00
2023-04-15T02:38:53.962Z,504.00
2023-04-15T02:39:54.008Z,509.00
2023-04-15T02:40:54.000Z,504.00
2023-04-15T02:41:54.014Z,508.00
2023-04-15T02:42:54.035Z,511.00
2023-04-15T02:43:54.050Z,512.00
2023-04-15T02:44:54.103Z,506.00
2023-04-15T02:45:54.119Z,508.00
2023-04-15T02:46:54.098Z,500.00
2023-04-15T02:47:54.143Z,508.00
2023-04-15T02:48:54.129Z,508.00
2023-04-15T02:49:54.197Z,507.00
2023-04-15T02:50:54.185Z,500.00
2023-04-15T02:51:54.179Z,505.00
2023-04-15T02:52:54.235Z,508.00
2023-04-15T02:53:54.250Z,509.00
2023-04-15T02:54:54.284Z,503.00
2023-04-15T02:55:54.270Z,502.00
2023-04-15T02:56:54.300Z,505.00
2023-04-15T02:57:54.369Z,505.00
2023-04-15T02:58:54.335Z,507.00
2023-04-15T02:59:54.350Z,506.00
2023-04-15T03:00:54.364Z,507.00
2023-04-15T03:01:54.516Z,506.00
2023-04-15T03:02:54.475Z,508.00
2023-04-15T03:03:54.575Z,509.00
2023-04-15T03:04:54.495Z,503.00
2023-04-15T03:05:54.474Z,508.00
2023-04-15T03:06:54.529Z,506.00
2023-04-15T03:07:54.521Z,509.00
2023-04-15T03:08:54.531Z,506.00
2023-04-15T03:09:54.568Z,509.00
2023-04-15T03:10:54.549Z,510.00
2023-04-15T03:11:54.576Z,504.00
2023-04-15T03:12:54.603Z,508.00
2023-04-15T03:13:54.626Z,507.00
2023-04-15T03:14:54.664Z,502.00
2023-04-15T03:15:54.694Z,508.00
2023-04-15T03:16:54.699Z,506.00
2023-04-15T03:17:54.774Z,500.00
2023-04-15T03:18:54.714Z,509.00
2023-04-15T03:19:54.764Z,511.00
2023-04-15T03:20:54.748Z,503.00
2023-04-15T03:21:54.771Z,501.00
2023-04-15T03:22:54.850Z,511.00
2023-04-15T03:23:54.845Z,510.00
2023-04-15T03:24:54.872Z,507.00
2023-04-15T03:25:54.847Z,509.00
2023-04-15T03:26:54.869Z,515.00
2023-04-15T03:27:54.889Z,513.00
2023-04-15T03:28:54.919Z,510.00
2023-04-15T03:29:54.968Z,510.00
2023-04-15T03:30:54.991Z,512.00
2023-04-15T03:31:54.989Z,508.00
2023-04-15T03:32:55.074Z,507.00
2023-04-15T03:33:55.009Z,505.00
2023-04-15T03:34:55.096Z,508.00
2023-04-15T03:35:55.064Z,507.00
2023-04-15T03:36:55.094Z,508.00
2023-04-15T03:37:55.117Z,510.00
2023-04-15T03:38:55.162Z,503.00
2023-04-15T03:39:55.155Z,506.00
2023-04-15T03:40:55.174Z,506.00
2023-04-15T03:41:55.199Z,507.00
2023-04-15T03:42:55.215Z,505.00
2023-04-15T03:43:55.260Z,507.00
2023-04-15T03:44:55.268Z,510.00
2023-04-15T03:45:55.293Z,504.00
2023-04-15T03:46:55.324Z,508.00
2023-04-15T03:47:55.382Z,510.00
2023-04-15T03:48:55.402Z,504.00
2023-04-15T03:49:55.358Z,502.00
2023-04-15T03:50:55.381Z,504.00
2023-04-15T03:51:55.394Z,507.00
2023-04-15T03:52:55.399Z,502.00
2023-04-15T03:53:55.511Z,507.00
2023-04-15T03:54:55.468Z,510.00
2023-04-15T03:55:55.431Z,507.00
2023-04-15T03:56:55.461Z,509.00
2023-04-15T03:57:55.481Z,504.00
2023-04-15T03:58:55.500Z,509.00
2023-04-15T03:59:55.507Z,508.00
2023-04-15T04:00:55.516Z,507.00
2023-04-15T04:01:55.636Z,510.00
2023-04-15T04:02:55.713Z,508.00
2023-04-15T04:03:55.648Z,507.00
2023-04-15T04:04:55.578Z,509.00
2023-04-15T04:05:55.562Z,508.00
2023-04-15T04:06:55.560Z,508.00
2023-04-15T04:07:55.560Z,504.00
2023-04-15T04:08:55.558Z,512.00
2023-04-15T04:09:55.574Z,502.00
2023-04-15T04:10:55.613Z,509.00
2023-04-15T04:11:55.585Z,511.00
2023-04-15T04:12:55.602Z,507.00
2023-04-15T04:13:55.604Z,511.00
2023-04-15T04:14:55.609Z,508.00
2023-04-15T04:15:55.663Z,510.00
2023-04-15T04:16:55.698Z,511.00
2023-04-15T04:17:55.685Z,507.00
2023-04-15T04:18:55.693Z,510.00
2023-04-15T04:19:55.721Z,511.00
2023-04-15T04:20:55.732Z,511.00
2023-04-15T04:21:55.758Z,510.00
2023-04-15T04:22:55.783Z,505.00
2023-04-15T04:23:55.793Z,512.00
2023-04-15T04:24:55.841Z,514.00
2023-04-15T04:25:55.822Z,506.00
2023-04-15T04:26:55.869Z,509.00
2023-04-15T04:27:55.849Z,511.00
2023-04-15T04:28:55.846Z,508.00
2023-04-15T04:29:55.863Z,507.00
2023-04-15T04:30:55.879Z,509.00
2023-04-15T04:31:55.924Z,514.00
2023-04-15T04:32:55.922Z,505.00
2023-04-15T04:33:55.894Z,513.00
2023-04-15T04:34:55.890Z,513.00
2023-04-15T04:35:55.896Z,513.00
2023-04-15T04:36:55.909Z,511.00
2023-04-15T04:37:55.903Z,509.00
2023-04-15T04:38:55.921Z,502.00
2023-04-15T04:39:55.953Z,505.00
2023-04-15T04:40:55.972Z,506.00
2023-04-15T04:41:55.977Z,512.00
2023-04-15T04:42:56.005Z,508.00
2023-04-15T04:43:56.010Z,510.00
2023-04-15T04:44:56.048Z,509.00
2023-04-15T04:45:56.116Z,510.00
2023-04-15T04:46:56.135Z,510.00
2023-04-15T04:47:56.132Z,514.00
2023-04-15T04:48:56.115Z,513.00
2023-04-15T04:49:56.130Z,508.00
2023-04-15T04:50:56.185Z,509.00
2023-04-15T04:51:56.158Z,509.00
2023-04-15T04:52:56.160Z,506.00
2023-04-15T04:53:56.186Z,515.00
2023-04-15T04:54:56.201Z,506.00
2023-04-15T04:55:56.235Z,508.00
2023-04-15T04:56:56.191Z,508.00
2023-04-15T04:57:56.208Z,502.00
2023-04-15T04:58:56.239Z,504.00
2023-04-15T04:59:56.220Z,508.00
2023-04-15T05:00:56.231Z,510.00
2023-04-15T05:01:56.278Z,512.00
2023-04-15T05:02:56.313Z,504.00
2023-04-15T05:03:56.367Z,503.00
2023-04-15T05:04:56.255Z,508.00
2023-04-15T05:05:56.588Z,501.00
2023-04-15T05:06:56.354Z,509.00
2023-04-15T05:07:56.304Z,510.00
2023-04-15T05:08:56.327Z,508.00
2023-04-15T05:09:56.340Z,508.00
2023-04-15T05:10:56.385Z,505.00
2023-04-15T05:11:56.370Z,509.00
2023-04-15T05:12:56.419Z,508.00
2023-04-15T05:13:56.410Z,508.00
2023-04-15T05:14:56.450Z,505.00
2023-04-15T05:15:56.510Z,506.00
2023-04-15T05:16:56.474Z,504.00
2023-04-15T05:17:56.500Z,504.00
2023-04-15T05:18:56.478Z,503.00
2023-04-15T05:19:56.486Z,504.00
2023-04-15T05:20:56.546Z,501.00
2023-04-15T05:21:56.523Z,504.00
2023-04-15T05:22:56.544Z,503.00
2023-04-15T05:23:56.571Z,509.00
2023-04-15T05:24:56.632Z,502.00
2023-04-15T05:25:56.588Z,507.00
2023-04-15T05:26:56.604Z,500.00
2023-04-15T05:27:56.622Z,504.00
2023-04-15T05:28:56.672Z,507.00
2023-04-15T05:29:56.720Z,501.00
2023-04-15T05:30:56.736Z,503.00
2023-04-15T05:31:56.716Z,506.00
2023-04-15T05:32:56.728Z,502.00
2023-04-15T05:33:56.720Z,507.00
2023-04-15T05:34:56.753Z,510.00
2023-04-15T05:35:56.764Z,506.00
2023-04-15T05:36:56.780Z,507.00
2023-04-15T05:37:56.794Z,507.00
2023-04-15T05:38:56.813Z,511.00
2023-04-15T05:39:56.848Z,505.00
2023-04-15T05:40:56.836Z,505.00
2023-04-15T05:41:56.860Z,507.00
2023-04-15T05:42:56.868Z,504.00
2023-04-15T05:43:56.907Z,503.00
2023-04-15T05:44:56.934Z,507.00
2023-04-15T05:45:56.950Z,504.00
2023-04-15T05:46:56.957Z,503.00
2023-04-15T05:47:57.007Z,501.00
2023-04-15T05:48:56.973Z,503.00
2023-04-15T05:49:56.994Z,502.00
2023-04-15T05:50:57.014Z,510.00
2023-04-15T05:51:57.026Z,502.00
2023-04-15T05:52:57.062Z,506.00
2023-04-15T05:53:57.047Z,500.00
2023-04-15T05:54:57.086Z,464.00
2023-04-15T05:55:57.075Z,495.00
2023-04-15T05:56:57.096Z,508.00
2023-04-15T05:57:57.133Z,521.00
2023-04-15T05:58:57.163Z,535.00
2023-04-15T05:59:57.605Z,568.00
2023-04-15T06:00:57.287Z,585.00
2023-04-15T06:01:57.391Z,609.00
2023-04-15T06:02:57.438Z,613.00
2023-04-15T06:03:57.494Z,615.00
2023-04-15T06:04:57.503Z,610.00
2023-04-15T06:05:57.429Z,603.00
2023-04-15T06:06:57.434Z,604.00
2023-04-15T06:07:57.434Z,613.00
2023-04-15T06:08:57.561Z,623.00
2023-04-15T06:09:57.520Z,628.00
2023-04-15T06:10:57.554Z,632.00
2023-04-15T06:11:57.580Z,637.00
2023-04-15T06:12:57.582Z,638.00
2023-04-15T06:13:57.594Z,639.00
2023-04-15T06:14:59.538Z,645.00
2023-04-15T06:15:57.640Z,651.00
2023-04-15T06:16:57.596Z,665.00
2023-04-15T06:17:57.616Z,674.00
2023-04-15T06:18:57.608Z,664.00
2023-04-15T06:19:57.574Z,689.00
2023-04-15T06:20:57.604Z,724.00
2023-04-15T06:21:57.563Z,779.00
2023-04-15T06:22:57.554Z,771.00
2023-04-15T06:23:57.542Z,808.00
2023-04-15T06:24:57.525Z,829.00
2023-04-15T06:25:57.525Z,840.00
2023-04-15T06:26:57.512Z,857.00
2023-04-15T06:27:57.505Z,876.00
2023-04-15T06:28:57.502Z,864.00
2023-04-15T06:29:57.498Z,906.00
2023-04-15T06:30:57.488Z,916.00
2023-04-15T06:31:57.606Z,932.00
2023-04-15T06:32:57.577Z,944.00
2023-04-15T06:33:57.469Z,973.00
2023-04-15T06:34:57.478Z,991.00
2023-04-15T06:35:57.453Z,997.00
2023-04-15T06:36:57.462Z,1029.00
2023-04-15T06:37:57.446Z,1048.00
2023-04-15T06:38:57.428Z,1067.00
2023-04-15T06:39:57.422Z,1064.00
2023-04-15T06:40:57.411Z,1085.00
2023-04-15T06:41:57.422Z,1101.00
2023-04-15T06:42:57.405Z,1118.00
2023-04-15T06:43:57.408Z,1133.00
2023-04-15T06:44:57.430Z,1150.00
2023-04-15T06:45:57.434Z,1157.00
2023-04-15T06:46:57.374Z,1182.00
2023-04-15T06:47:57.448Z,1176.00
2023-04-15T06:48:57.386Z,1201.00
2023-04-15T06:49:57.405Z,1217.00
2023-04-15T06:50:57.393Z,1225.00
2023-04-15T06:51:57.348Z,1238.00
2023-04-15T06:52:57.365Z,1250.00
2023-04-15T06:53:57.336Z,1272.00
2023-04-15T06:54:57.345Z,1287.00
2023-04-15T06:55:57.303Z,1296.00
2023-04-15T06:56:57.312Z,1295.00
2023-04-15T06:57:57.313Z,1317.00
2023-04-15T06:58:57.387Z,1327.00
2023-04-15T06:59:57.436Z,1324.00
2023-04-15T07:00:57.507Z,1344.00
2023-04-15T07:01:57.599Z,1342.00
2023-04-15T07:02:57.645Z,1365.00
2023-04-15T07:03:57.687Z,1387.00
2023-04-15T07:04:57.731Z,1397.00
2023-04-15T07:05:57.791Z,1330.00
2023-04-15T07:06:57.883Z,879.00
2023-04-15T07:07:57.859Z,778.00
2023-04-15T07:08:57.863Z,669.00
2023-04-15T07:09:57.862Z,635.00
2023-04-15T07:10:57.883Z,657.00
2023-04-15T07:11:57.913Z,618.00
2023-04-15T07:12:57.944Z,568.00
2023-04-15T07:13:57.987Z,556.00
2023-04-15T07:14:58.032Z,524.00
2023-04-15T07:15:58.072Z,500.00
2023-04-15T07:16:58.161Z,498.00
2023-04-15T07:17:58.215Z,433.00
2023-04-15T07:18:58.194Z,433.00
2023-04-15T07:19:58.219Z,400.00
2023-04-15T07:20:58.249Z,400.00
2023-04-15T07:21:58.295Z,411.00
2023-04-15T07:22:58.324Z,445.00
2023-04-15T07:23:58.409Z,497.00
2023-04-15T07:24:58.381Z,515.00
2023-04-15T07:25:58.384Z,500.00
2023-04-15T07:26:59.533Z,509.00
2023-04-15T07:27:58.392Z,519.00
2023-04-15T07:28:58.377Z,543.00
2023-04-15T07:29:58.371Z,556.00
2023-04-15T07:30:58.376Z,572.00
2023-04-15T07:31:58.363Z,571.00
2023-04-15T07:32:58.394Z,565.00
2023-04-15T07:33:58.345Z,554.00
2023-04-15T07:34:58.340Z,545.00
2023-04-15T07:35:58.333Z,540.00
2023-04-15T07:36:58.320Z,569.00
2023-04-15T07:37:58.314Z,583.00
2023-04-15T07:38:58.329Z,598.00
2023-04-15T07:39:58.306Z,602.00
2023-04-15T07:40:58.314Z,624.00
2023-04-15T07:41:58.298Z,624.00
2023-04-15T07:42:58.295Z,650.00
2023-04-15T07:43:58.280Z,710.00
2023-04-15T07:44:58.271Z,775.00
2023-04-15T07:45:58.298Z,813.00
2023-04-15T07:46:58.261Z,814.00
2023-04-15T07:47:58.310Z,893.00
2023-04-15T07:48:58.241Z,900.00
2023-04-15T07:49:58.240Z,933.00
2023-04-15T07:50:58.240Z,932.00
2023-04-15T07:51:58.220Z,969.00
2023-04-15T07:52:58.217Z,1037.00
2023-04-15T07:53:58.204Z,1089.00
2023-04-15T07:54:58.223Z,1132.00
2023-04-15T07:55:58.198Z,1150.00
2023-04-15T07:56:58.400Z,1188.00
2023-04-15T07:57:58.180Z,1219.00
2023-04-15T07:58:58.214Z,1239.00
2023-04-15T07:59:58.159Z,1256.00
2023-04-15T08:00:58.150Z,1272.00
2023-04-15T08:01:58.178Z,1298.00
2023-04-15T08:02:58.256Z,1326.00
2023-04-15T08:03:58.274Z,1335.00
2023-04-15T08:04:58.180Z,1344.00
2023-04-15T08:05:58.126Z,1388.00
2023-04-15T08:06:58.113Z,1417.00
2023-04-15T08:07:58.113Z,1443.00
2023-04-15T08:08:58.257Z,1444.00
2023-04-15T08:09:58.090Z,1495.00
2023-04-15T08:10:58.108Z,1524.00
2023-04-15T08:11:58.090Z,1552.00
2023-04-15T08:12:58.080Z,1572.00
2023-04-15T08:13:58.062Z,1600.00
2023-04-15T08:14:58.049Z,1627.00
2023-04-15T08:15:58.053Z,1647.00
2023-04-15T08:16:58.041Z,1673.00
2023-04-15T08:17:58.057Z,1680.00
2023-04-15T08:18:58.110Z,1723.00
2023-04-15T08:19:58.060Z,1763.00
2023-04-15T08:20:58.124Z,1783.00
2023-04-15T08:21:58.182Z,1781.00
2023-04-15T08:22:58.249Z,1766.00
2023-04-15T08:23:58.310Z,1754.00
2023-04-15T08:24:58.325Z,1706.00
2023-04-15T08:25:58.320Z,1454.00
2023-04-15T08:26:58.360Z,1037.00
2023-04-15T08:27:58.401Z,889.00
2023-04-15T08:28:58.445Z,921.00
2023-04-15T08:29:58.511Z,1112.00
2023-04-15T08:30:58.571Z,1116.00
2023-04-15T08:31:58.667Z,1208.00
2023-04-15T08:32:58.680Z,1283.00
2023-04-15T08:33:58.725Z,1403.00
2023-04-15T08:34:58.777Z,1476.00
2023-04-15T08:35:58.827Z,1514.00
2023-04-15T08:36:58.856Z,1568.00
2023-04-15T08:37:58.887Z,1584.00
2023-04-15T08:38:58.915Z,1606.00
2023-04-15T08:39:58.916Z,1625.00
2023-04-15T08:40:58.935Z,1623.00
2023-04-15T08:41:58.937Z,1648.00
2023-04-15T08:42:59.053Z,1623.00
2023-04-15T08:43:58.962Z,1631.00
2023-04-15T08:44:58.935Z,1580.00
2023-04-15T08:45:58.932Z,1550.00
2023-04-15T08:46:58.965Z,1549.00
2023-04-15T08:47:59.014Z,1546.00
2023-04-15T08:48:58.983Z,1486.00
2023-04-15T08:49:58.958Z,1511.00
2023-04-15T08:50:58.956Z,1537.00
2023-04-15T08:51:58.957Z,1585.00
2023-04-15T08:52:58.953Z,1614.00
2023-04-15T08:53:58.947Z,1658.00
2023-04-15T08:54:58.953Z,1698.00
2023-04-15T08:55:58.976Z,1692.00
2023-04-15T08:56:58.946Z,1712.00
2023-04-15T08:57:58.965Z,1744.00
2023-04-15T08:58:59.102Z,1753.00
2023-04-15T08:59:59.038Z,1772.00
2023-04-15T09:00:59.111Z,1791.00
2023-04-15T09:01:59.164Z,1801.00
2023-04-15T09:02:59.243Z,1815.00
2023-04-15T09:03:59.290Z,1815.00
2023-04-15T09:04:59.290Z,1825.00
2023-04-15T09:05:59.347Z,1861.00
2023-04-15T09:06:59.405Z,1870.00
2023-04-15T09:07:59.478Z,1873.00
2023-04-15T09:09:00.422Z,1897.00
2023-04-15T09:09:59.571Z,1918.00
2023-04-15T09:10:59.675Z,1943.00
2023-04-15T09:11:59.696Z,1944.00
2023-04-15T09:12:59.773Z,1957.00
2023-04-15T09:13:59.809Z,1969.00
2023-04-15T09:15:00.022Z,1967.00
2023-04-15T09:15:59.945Z,1975.00
2023-04-15T09:17:00.055Z,2011.00
2023-04-15T09:18:00.176Z,2015.00
2023-04-15T09:19:00.292Z,2038.00
2023-04-15T09:20:00.188Z,2041.00
2023-04-15T09:21:00.248Z,2064.00
2023-04-15T09:22:00.312Z,2079.00
2023-04-15T09:23:00.380Z,2081.00
2023-04-15T09:24:00.596Z,2095.00
2023-04-15T09:25:00.504Z,2104.00
2023-04-15T09:26:00.556Z,2112.00
2023-04-15T09:27:00.637Z,2133.00
2023-04-15T09:28:00.659Z,2140.00
2023-04-15T09:29:00.727Z,2150.00
2023-04-15T09:30:00.771Z,2151.00
2023-04-15T09:31:00.893Z,2164.00
2023-04-15T09:32:00.878Z,2170.00
2023-04-15T09:33:00.987Z,2189.00
2023-04-15T09:34:01.249Z,2199.00
2023-04-15T09:35:01.121Z,2210.00
2023-04-15T09:36:01.175Z,2223.00
2023-04-15T09:37:01.230Z,2228.00
2023-04-15T09:38:01.283Z,1940.00
2023-04-15T09:39:01.383Z,1363.00
2023-04-15T09:40:01.350Z,1140.00
2023-04-15T09:41:01.362Z,1004.00
2023-04-15T09:42:01.422Z,823.00
2023-04-15T09:43:01.453Z,698.00
2023-04-15T09:44:01.796Z,668.00
2023-04-15T09:45:01.469Z,653.00
2023-04-15T09:46:01.517Z,627.00
2023-04-15T09:47:01.553Z,615.00
2023-04-15T09:48:01.650Z,595.00
2023-04-15T09:49:01.611Z,565.00
2023-04-15T09:50:01.959Z,567.00
2023-04-15T09:51:01.718Z,531.00
2023-04-15T09:52:05.735Z,508.00
2023-04-15T09:53:01.753Z,502.00
2023-04-15T09:54:01.910Z,472.00
2023-04-15T09:55:01.726Z,461.00
2023-04-15T09:56:01.781Z,505.00
2023-04-15T09:57:01.725Z,527.00
2023-04-15T09:58:01.702Z,562.00
2023-04-15T09:59:01.698Z,632.00
2023-04-15T10:00:01.686Z,656.00
2023-04-15T10:01:01.765Z,772.00
2023-04-15T10:02:01.734Z,880.00
2023-04-15T10:03:01.833Z,973.00
2023-04-15T10:04:01.903Z,1055.00
2023-04-15T10:05:01.670Z,1123.00
2023-04-15T10:06:01.650Z,1165.00
2023-04-15T10:07:01.682Z,1204.00
2023-04-15T10:08:01.641Z,1223.00
2023-04-15T10:09:01.690Z,1268.00
2023-04-15T10:10:01.664Z,1264.00
2023-04-15T10:11:01.625Z,1236.00
2023-04-15T10:12:01.626Z,1282.00
2023-04-15T10:13:01.632Z,1313.00
2023-04-15T10:14:01.952Z,1292.00
2023-04-15T10:15:01.589Z,1314.00
2023-04-15T10:16:01.614Z,1412.00
2023-04-15T10:17:01.584Z,1433.00
2023-04-15T10:18:01.657Z,1457.00
2023-04-15T10:19:01.586Z,1465.00
2023-04-15T10:20:01.675Z,1467.00
2023-04-15T10:21:01.556Z,1495.00
2023-04-15T10:22:01.571Z,1486.00
2023-04-15T10:23:01.535Z,1513.00
2023-04-15T10:24:01.798Z,1513.00
2023-04-15T10:25:01.516Z,1531.00
2023-04-15T10:26:01.521Z,1553.00
2023-04-15T10:27:01.513Z,1587.00
2023-04-15T10:28:01.490Z,1618.00
2023-04-15T10:29:01.514Z,1623.00
2023-04-15T10:30:01.577Z,1652.00
2023-04-15T10:31:01.718Z,1660.00
2023-04-15T10:32:01.709Z,1677.00
2023-04-15T10:33:01.965Z,1690.00
2023-04-15T10:34:02.165Z,1720.00
2023-04-15T10:35:01.959Z,1733.00
2023-04-15T10:36:01.941Z,1750.00
2023-04-15T10:37:01.985Z,1779.00
2023-04-15T10:38:02.051Z,1801.00
2023-04-15T10:39:02.153Z,1835.00
2023-04-15T10:40:02.177Z,1830.00
2023-04-15T10:41:02.199Z,1845.00
2023-04-15T10:42:02.256Z,1848.00
2023-04-15T10:43:02.314Z,1872.00
2023-04-15T10:44:02.713Z,1874.00
2023-04-15T10:45:02.400Z,1900.00
2023-04-15T10:46:02.460Z,1925.00
2023-04-15T10:47:02.517Z,1917.00
2023-04-15T10:48:03.792Z,1934.00
2023-04-15T10:49:02.607Z,1900.00
2023-04-15T10:50:02.708Z,1783.00
2023-04-15T10:51:02.747Z,1723.00
2023-04-15T10:52:02.779Z,1686.00
2023-04-15T10:53:02.849Z,1558.00
2023-04-15T10:54:02.870Z,1595.00
2023-04-15T10:55:02.883Z,1591.00
2023-04-15T10:56:02.876Z,1521.00
2023-04-15T10:57:02.929Z,1585.00
2023-04-15T10:58:02.894Z,1736.00
2023-04-15T10:59:02.907Z,1792.00
2023-04-15T11:00:02.952Z,1787.00
2023-04-15T11:01:03.224Z,1766.00
2023-04-15T11:02:03.089Z,1769.00
2023-04-15T11:03:03.121Z,1760.00
2023-04-15T11:04:03.608Z,1731.00
2023-04-15T11:05:03.112Z,1732.00
2023-04-15T11:06:03.158Z,1725.00
2023-04-15T11:07:03.242Z,1712.00
2023-04-15T11:08:03.271Z,1709.00
2023-04-15T11:09:03.333Z,1705.00
2023-04-15T11:10:03.419Z,1717.00
2023-04-15T11:11:03.473Z,1722.00
2023-04-15T11:12:03.536Z,1724.00
2023-04-15T11:13:03.600Z,1716.00
2023-04-15T11:14:03.843Z,1712.00
2023-04-15T11:15:03.724Z,1711.00
2023-04-15T11:16:03.884Z,1720.00
2023-04-15T11:17:03.843Z,1728.00
2023-04-15T11:18:03.943Z,1713.00
2023-04-15T11:19:03.961Z,1705.00
2023-04-15T11:20:04.025Z,1699.00
2023-04-15T11:21:04.078Z,1715.00
2023-04-15T11:22:04.131Z,1705.00
2023-04-15T11:23:08.218Z,1700.00
2023-04-15T11:24:04.229Z,1701.00
2023-04-15T11:25:04.166Z,1706.00
2023-04-15T11:26:04.162Z,1708.00
2023-04-15T11:27:04.146Z,1724.00
2023-04-15T11:28:04.178Z,1710.00
2023-04-15T11:29:04.379Z,1716.00
2023-04-15T11:30:04.126Z,1722.00
2023-04-15T11:31:04.117Z,1725.00
2023-04-15T11:32:04.138Z,1738.00
2023-04-15T11:33:04.156Z,1728.00
2023-04-15T11:34:04.289Z,1717.00
2023-04-15T11:35:04.246Z,1721.00
2023-04-15T11:36:04.082Z,1737.00
2023-04-15T11:37:04.086Z,1719.00
2023-04-15T11:38:04.076Z,1735.00
2023-04-15T11:39:04.201Z,1724.00
2023-04-15T11:40:04.071Z,1723.00
2023-04-15T11:41:04.058Z,1719.00
2023-04-15T11:42:04.044Z,1717.00
2023-04-15T11:43:04.050Z,1728.00
2023-04-15T11:44:04.219Z,1724.00
2023-04-15T11:45:04.051Z,1718.00
2023-04-15T11:46:04.071Z,1721.00
2023-04-15T11:47:04.032Z,1710.00
2023-04-15T11:48:04.087Z,1710.00
2023-04-15T11:49:04.111Z,1720.00
2023-04-15T11:50:04.141Z,1704.00
2023-04-15T11:51:04.176Z,1709.00
2023-04-15T11:52:04.208Z,1714.00
2023-04-15T11:53:06.232Z,1716.00
2023-04-15T11:54:04.621Z,1717.00
2023-04-15T11:55:04.268Z,1717.00
2023-04-15T11:56:04.244Z,1720.00
2023-04-15T11:57:04.241Z,1712.00
2023-04-15T11:58:04.218Z,1716.00
2023-04-15T11:59:04.215Z,1727.00
2023-04-15T12:00:04.215Z,1711.00
2023-04-15T12:01:04.238Z,1718.00
2023-04-15T12:02:04.332Z,1722.00
2023-04-15T12:03:04.401Z,1723.00
2023-04-15T12:04:04.785Z,1716.00
2023-04-15T12:05:04.274Z,1699.00
2023-04-15T12:06:04.165Z,1709.00
2023-04-15T12:07:04.151Z,1711.00
2023-04-15T12:08:04.151Z,1717.00
2023-04-15T12:09:04.148Z,1694.00
2023-04-15T12:10:04.174Z,1719.00
2023-04-15T12:11:04.245Z,1710.00
2023-04-15T12:12:04.274Z,1703.00
2023-04-15T12:13:04.319Z,1702.00
2023-04-15T12:14:04.529Z,1690.00
2023-04-15T12:15:04.432Z,1707.00
2023-04-15T12:16:04.491Z,1703.00
2023-04-15T12:17:04.527Z,1702.00
2023-04-15T12:18:05.224Z,1699.00
2023-04-15T12:19:04.787Z,1691.00
2023-04-15T12:20:04.829Z,1692.00